sensor_id;sensor_type;location;lat;lon;timestamp;temperature;humidity
46590;DHT22;32313;48.722;9.362;2023-09-07T00:00:22;12.10;99.90
46590;DHT22;32313;48.722;9.362;2023-09-07T00:02:48;12.20;99.90
46590;DHT22;32313;48.722;9.362;2023-09-07T00:05:14;12.20;99.90
46590;DHT22;32313;48.722;9.362;2023-09-07T00:07:39;12.20;99.90
46590;DHT22;32313;48.722;9.362;2023-09-07T00:10:06;12.10;99.90
46590;DHT22;32313;48.722;9.362;2023-09-07T00:12:31;12.10;99.90
46590;DHT22;32313;48.722;9.362;2023-09-07T00:14:58;12.10;99.90
46590;DHT22;32313;48.722;9.362;2023-09-07T00:17:25;12.00;99.90
46590;DHT22;32313;48.722;9.362;2023-09-07T00:19:50;11.90;99.90
46590;DHT22;32313;48.722;9.362;2023-09-07T00:22:17;11.90;99.90
46590;DHT22;32313;48.722;9.362;2023-09-07T00:24:43;11.90;99.90
46590;DHT22;32313;48.722;9.362;2023-09-07T00:27:09;11.90;99.90
46590;DHT22;32313;48.722;9.362;2023-09-07T00:29:37;11.80;99.90
46590;DHT22;32313;48.722;9.362;2023-09-07T00:32:03;11.80;99.90
46590;DHT22;32313;48.722;9.362;2023-09-07T00:34:29;11.70;99.90
46590;DHT22;32313;48.722;9.362;2023-09-07T00:36:56;11.70;99.90
46590;DHT22;32313;48.722;9.362;2023-09-07T00:39:21;11.60;99.90
46590;DHT22;32313;48.722;9.362;2023-09-07T00:41:47;11.60;99.90
46590;DHT22;32313;48.722;9.362;2023-09-07T00:44:13;11.70;99.90
46590;DHT22;32313;48.722;9.362;2023-09-07T00:46:38;11.70;99.90
46590;DHT22;32313;48.722;9.362;2023-09-07T00:49:04;11.60;99.90
46590;DHT22;32313;48.722;9.362;2023-09-07T00:51:31;11.60;99.90
46590;DHT22;32313;48.722;9.362;2023-09-07T00:53:58;11.50;99.90
46590;DHT22;32313;48.722;9.362;2023-09-07T00:56:25;11.50;99.90
46590;DHT22;32313;48.722;9.362;2023-09-07T00:58:53;11.50;99.90
46590;DHT22;32313;48.722;9.362;2023-09-07T01:01:24;11.50;99.90
46590;DHT22;32313;48.722;9.362;2023-09-07T01:03:50;11.40;99.90
46590;DHT22;32313;48.722;9.362;2023-09-07T01:08:46;11.40;99.90
46590;DHT22;32313;48.722;9.362;2023-09-07T01:11:17;11.40;99.90
46590;DHT22;32313;48.722;9.362;2023-09-07T01:13:46;11.40;99.90
46590;DHT22;32313;48.722;9.362;2023-09-07T01:16:13;11.40;99.90
46590;DHT22;32313;48.722;9.362;2023-09-07T01:18:39;11.40;99.90
46590;DHT22;32313;48.722;9.362;2023-09-07T01:21:08;11.50;99.90
46590;DHT22;32313;48.722;9.362;2023-09-07T01:23:38;11.50;99.90
46590;DHT22;32313;48.722;9.362;2023-09-07T01:26:08;11.60;99.90
46590;DHT22;32313;48.722;9.362;2023-09-07T01:28:34;11.60;99.90
46590;DHT22;32313;48.722;9.362;2023-09-07T01:31:01;11.60;99.90
46590;DHT22;32313;48.722;9.362;2023-09-07T01:33:30;11.50;99.90
46590;DHT22;32313;48.722;9.362;2023-09-07T01:35:55;11.50;99.90
46590;DHT22;32313;48.722;9.362;2023-09-07T01:38:21;11.40;99.90
46590;DHT22;32313;48.722;9.362;2023-09-07T01:40:47;11.40;99.90
46590;DHT22;32313;48.722;9.362;2023-09-07T01:43:13;11.30;99.90
46590;DHT22;32313;48.722;9.362;2023-09-07T01:45:39;11.20;99.90
46590;DHT22;32313;48.722;9.362;2023-09-07T01:48:14;11.20;99.90
46590;DHT22;32313;48.722;9.362;2023-09-07T01:50:40;11.10;99.90
46590;DHT22;32313;48.722;9.362;2023-09-07T01:53:05;11.10;99.90
46590;DHT22;32313;48.722;9.362;2023-09-07T01:55:32;11.10;99.90
46590;DHT22;32313;48.722;9.362;2023-09-07T01:57:59;11.10;99.90
46590;DHT22;32313;48.722;9.362;2023-09-07T02:00:25;11.00;99.90
46590;DHT22;32313;48.722;9.362;2023-09-07T02:02:51;11.00;99.90
46590;DHT22;32313;48.722;9.362;2023-09-07T02:05:16;11.00;99.90
46590;DHT22;32313;48.722;9.362;2023-09-07T02:07:45;11.00;99.90
46590;DHT22;32313;48.722;9.362;2023-09-07T02:10:12;11.00;99.90
46590;DHT22;32313;48.722;9.362;2023-09-07T02:12:37;11.00;99.90
46590;DHT22;32313;48.722;9.362;2023-09-07T02:15:04;11.10;99.90
46590;DHT22;32313;48.722;9.362;2023-09-07T02:17:29;11.00;99.90
46590;DHT22;32313;48.722;9.362;2023-09-07T02:19:56;11.00;99.90
46590;DHT22;32313;48.722;9.362;2023-09-07T02:22:22;11.10;99.90
46590;DHT22;32313;48.722;9.362;2023-09-07T02:24:48;11.10;99.90
46590;DHT22;32313;48.722;9.362;2023-09-07T02:27:14;11.00;99.90
46590;DHT22;32313;48.722;9.362;2023-09-07T02:29:40;11.00;99.90
46590;DHT22;32313;48.722;9.362;2023-09-07T02:32:05;11.00;99.90
46590;DHT22;32313;48.722;9.362;2023-09-07T02:34:31;10.90;99.90
46590;DHT22;32313;48.722;9.362;2023-09-07T02:36:57;10.80;99.90
46590;DHT22;32313;48.722;9.362;2023-09-07T02:39:23;10.70;99.90
46590;DHT22;32313;48.722;9.362;2023-09-07T02:41:52;10.70;99.90
46590;DHT22;32313;48.722;9.362;2023-09-07T02:44:18;10.70;99.90
46590;DHT22;32313;48.722;9.362;2023-09-07T02:46:44;10.70;99.90
46590;DHT22;32313;48.722;9.362;2023-09-07T02:49:10;10.70;99.90
46590;DHT22;32313;48.722;9.362;2023-09-07T02:51:35;10.70;99.90
46590;DHT22;32313;48.722;9.362;2023-09-07T02:54:02;10.70;99.90
46590;DHT22;32313;48.722;9.362;2023-09-07T02:56:30;10.60;99.90
46590;DHT22;32313;48.722;9.362;2023-09-07T02:58:56;10.60;99.90
46590;DHT22;32313;48.722;9.362;2023-09-07T03:01:22;10.60;99.90
46590;DHT22;32313;48.722;9.362;2023-09-07T03:03:49;10.60;99.90
46590;DHT22;32313;48.722;9.362;2023-09-07T03:06:16;10.50;99.90
46590;DHT22;32313;48.722;9.362;2023-09-07T03:08:48;10.50;99.90
46590;DHT22;32313;48.722;9.362;2023-09-07T03:11:14;10.50;99.90
46590;DHT22;32313;48.722;9.362;2023-09-07T03:13:40;10.40;99.90
46590;DHT22;32313;48.722;9.362;2023-09-07T03:16:07;10.40;99.90
46590;DHT22;32313;48.722;9.362;2023-09-07T03:18:33;10.40;99.90
46590;DHT22;32313;48.722;9.362;2023-09-07T03:21:01;10.30;99.90
46590;DHT22;32313;48.722;9.362;2023-09-07T03:23:28;10.30;99.90
46590;DHT22;32313;48.722;9.362;2023-09-07T03:25:53;10.30;99.90
46590;DHT22;32313;48.722;9.362;2023-09-07T03:28:19;10.20;99.90
46590;DHT22;32313;48.722;9.362;2023-09-07T03:30:45;10.20;99.90
46590;DHT22;32313;48.722;9.362;2023-09-07T03:33:11;10.20;99.90
46590;DHT22;32313;48.722;9.362;2023-09-07T03:35:37;10.20;99.90
46590;DHT22;32313;48.722;9.362;2023-09-07T03:38:04;10.20;99.90
46590;DHT22;32313;48.722;9.362;2023-09-07T03:40:29;10.10;99.90
46590;DHT22;32313;48.722;9.362;2023-09-07T03:42:56;10.20;99.90
46590;DHT22;32313;48.722;9.362;2023-09-07T03:45:21;10.30;99.90
46590;DHT22;32313;48.722;9.362;2023-09-07T03:47:48;10.30;99.90
46590;DHT22;32313;48.722;9.362;2023-09-07T03:50:16;10.40;99.90
46590;DHT22;32313;48.722;9.362;2023-09-07T03:52:41;10.40;99.90
46590;DHT22;32313;48.722;9.362;2023-09-07T03:55:07;10.40;99.90
46590;DHT22;32313;48.722;9.362;2023-09-07T03:57:33;10.40;99.90
46590;DHT22;32313;48.722;9.362;2023-09-07T04:00:00;10.30;99.90
46590;DHT22;32313;48.722;9.362;2023-09-07T04:02:25;10.30;99.90
46590;DHT22;32313;48.722;9.362;2023-09-07T04:04:53;10.30;99.90
46590;DHT22;32313;48.722;9.362;2023-09-07T04:07:19;10.30;99.90
46590;DHT22;32313;48.722;9.362;2023-09-07T04:09:45;10.30;99.90
46590;DHT22;32313;48.722;9.362;2023-09-07T04:12:11;10.30;99.90
46590;DHT22;32313;48.722;9.362;2023-09-07T04:14:37;10.20;99.90
46590;DHT22;32313;48.722;9.362;2023-09-07T04:17:04;10.20;99.90
46590;DHT22;32313;48.722;9.362;2023-09-07T04:19:30;10.20;99.90
46590;DHT22;32313;48.722;9.362;2023-09-07T04:21:57;10.20;99.90
46590;DHT22;32313;48.722;9.362;2023-09-07T04:24:23;10.10;99.90
46590;DHT22;32313;48.722;9.362;2023-09-07T04:26:48;10.00;99.90
46590;DHT22;32313;48.722;9.362;2023-09-07T04:29:16;10.00;99.90
46590;DHT22;32313;48.722;9.362;2023-09-07T04:31:42;9.90;99.90
46590;DHT22;32313;48.722;9.362;2023-09-07T04:34:07;9.90;99.90
46590;DHT22;32313;48.722;9.362;2023-09-07T04:36:34;9.90;99.90
46590;DHT22;32313;48.722;9.362;2023-09-07T04:39:00;9.80;99.90
46590;DHT22;32313;48.722;9.362;2023-09-07T04:41:25;9.80;99.90
46590;DHT22;32313;48.722;9.362;2023-09-07T04:43:51;9.70;99.90
46590;DHT22;32313;48.722;9.362;2023-09-07T04:46:17;9.70;99.90
46590;DHT22;32313;48.722;9.362;2023-09-07T04:48:46;9.70;99.90
46590;DHT22;32313;48.722;9.362;2023-09-07T04:51:12;9.70;99.90
46590;DHT22;32313;48.722;9.362;2023-09-07T04:53:39;9.70;99.90
46590;DHT22;32313;48.722;9.362;2023-09-07T04:56:06;9.80;99.90
46590;DHT22;32313;48.722;9.362;2023-09-07T04:58:32;9.80;99.90
46590;DHT22;32313;48.722;9.362;2023-09-07T05:01:05;9.90;99.90
46590;DHT22;32313;48.722;9.362;2023-09-07T05:03:32;9.90;99.90
46590;DHT22;32313;48.722;9.362;2023-09-07T05:05:59;9.90;99.90
46590;DHT22;32313;48.722;9.362;2023-09-07T05:08:25;9.90;99.90
46590;DHT22;32313;48.722;9.362;2023-09-07T05:10:58;9.90;99.90
46590;DHT22;32313;48.722;9.362;2023-09-07T05:13:24;9.90;99.90
46590;DHT22;32313;48.722;9.362;2023-09-07T05:15:51;9.90;99.90
46590;DHT22;32313;48.722;9.362;2023-09-07T05:18:19;9.80;99.90
46590;DHT22;32313;48.722;9.362;2023-09-07T05:20:45;9.80;99.90
46590;DHT22;32313;48.722;9.362;2023-09-07T05:23:14;9.90;99.90
46590;DHT22;32313;48.722;9.362;2023-09-07T05:25:45;9.90;99.90
46590;DHT22;32313;48.722;9.362;2023-09-07T05:28:13;10.00;99.90
46590;DHT22;32313;48.722;9.362;2023-09-07T05:30:39;10.00;99.90
46590;DHT22;32313;48.722;9.362;2023-09-07T05:33:05;10.10;99.90
46590;DHT22;32313;48.722;9.362;2023-09-07T05:35:31;10.10;99.90
46590;DHT22;32313;48.722;9.362;2023-09-07T05:37:58;10.20;99.90
46590;DHT22;32313;48.722;9.362;2023-09-07T05:40:24;10.30;99.90
46590;DHT22;32313;48.722;9.362;2023-09-07T05:42:50;10.40;99.90
46590;DHT22;32313;48.722;9.362;2023-09-07T05:45:16;10.50;99.90
46590;DHT22;32313;48.722;9.362;2023-09-07T05:47:42;10.50;99.90
46590;DHT22;32313;48.722;9.362;2023-09-07T05:50:08;10.60;99.90
46590;DHT22;32313;48.722;9.362;2023-09-07T05:52:34;10.60;99.90
46590;DHT22;32313;48.722;9.362;2023-09-07T05:54:59;10.70;99.90
46590;DHT22;32313;48.722;9.362;2023-09-07T05:57:25;10.80;99.90
46590;DHT22;32313;48.722;9.362;2023-09-07T05:59:51;10.90;99.90
46590;DHT22;32313;48.722;9.362;2023-09-07T06:02:16;11.00;99.90
46590;DHT22;32313;48.722;9.362;2023-09-07T06:04:42;11.10;99.90
46590;DHT22;32313;48.722;9.362;2023-09-07T06:07:08;11.20;99.90
46590;DHT22;32313;48.722;9.362;2023-09-07T06:09:34;11.30;99.90
46590;DHT22;32313;48.722;9.362;2023-09-07T06:12:02;11.30;99.90
46590;DHT22;32313;48.722;9.362;2023-09-07T06:14:29;11.50;99.90
46590;DHT22;32313;48.722;9.362;2023-09-07T06:16:54;11.60;99.90
46590;DHT22;32313;48.722;9.362;2023-09-07T06:19:21;11.80;99.90
46590;DHT22;32313;48.722;9.362;2023-09-07T06:21:47;11.90;99.90
46590;DHT22;32313;48.722;9.362;2023-09-07T06:24:13;12.00;99.90
46590;DHT22;32313;48.722;9.362;2023-09-07T06:26:40;12.10;99.90
46590;DHT22;32313;48.722;9.362;2023-09-07T06:29:06;12.10;99.90
46590;DHT22;32313;48.722;9.362;2023-09-07T06:31:32;12.60;99.90
46590;DHT22;32313;48.722;9.362;2023-09-07T06:33:57;13.40;99.90
46590;DHT22;32313;48.722;9.362;2023-09-07T06:36:24;14.20;99.90
46590;DHT22;32313;48.722;9.362;2023-09-07T06:38:49;14.80;99.90
46590;DHT22;32313;48.722;9.362;2023-09-07T06:41:15;15.40;99.90
46590;DHT22;32313;48.722;9.362;2023-09-07T06:43:41;16.00;99.90
46590;DHT22;32313;48.722;9.362;2023-09-07T06:46:09;16.50;99.90
46590;DHT22;32313;48.722;9.362;2023-09-07T06:48:35;17.00;99.90
46590;DHT22;32313;48.722;9.362;2023-09-07T06:51:05;17.50;99.90
46590;DHT22;32313;48.722;9.362;2023-09-07T06:53:32;18.00;99.90
46590;DHT22;32313;48.722;9.362;2023-09-07T06:56:03;18.40;99.90
46590;DHT22;32313;48.722;9.362;2023-09-07T06:58:30;18.70;99.90
46590;DHT22;32313;48.722;9.362;2023-09-07T07:00:58;19.00;99.90
46590;DHT22;32313;48.722;9.362;2023-09-07T07:03:29;19.40;99.90
46590;DHT22;32313;48.722;9.362;2023-09-07T07:05:56;19.50;99.90
46590;DHT22;32313;48.722;9.362;2023-09-07T07:08:23;19.60;99.90
46590;DHT22;32313;48.722;9.362;2023-09-07T07:10:49;19.80;99.90
46590;DHT22;32313;48.722;9.362;2023-09-07T07:13:15;20.10;99.90
46590;DHT22;32313;48.722;9.362;2023-09-07T07:15:41;20.20;99.90
46590;DHT22;32313;48.722;9.362;2023-09-07T07:18:07;20.40;99.90
46590;DHT22;32313;48.722;9.362;2023-09-07T07:20:38;20.50;99.90
46590;DHT22;32313;48.722;9.362;2023-09-07T07:23:04;20.70;99.90
46590;DHT22;32313;48.722;9.362;2023-09-07T07:25:33;21.20;99.90
46590;DHT22;32313;48.722;9.362;2023-09-07T07:28:03;21.60;99.90
46590;DHT22;32313;48.722;9.362;2023-09-07T07:30:36;21.90;99.90
46590;DHT22;32313;48.722;9.362;2023-09-07T07:33:03;22.20;99.90
46590;DHT22;32313;48.722;9.362;2023-09-07T07:35:33;22.30;99.90
46590;DHT22;32313;48.722;9.362;2023-09-07T07:38:01;22.50;99.90
46590;DHT22;32313;48.722;9.362;2023-09-07T07:40:27;22.80;99.90
46590;DHT22;32313;48.722;9.362;2023-09-07T07:42:53;22.90;99.90
46590;DHT22;32313;48.722;9.362;2023-09-07T07:45:20;22.80;99.90
46590;DHT22;32313;48.722;9.362;2023-09-07T07:47:52;22.90;99.90
46590;DHT22;32313;48.722;9.362;2023-09-07T07:50:18;23.10;99.90
46590;DHT22;32313;48.722;9.362;2023-09-07T07:52:45;23.50;99.90
46590;DHT22;32313;48.722;9.362;2023-09-07T07:55:11;23.40;99.90
46590;DHT22;32313;48.722;9.362;2023-09-07T07:57:38;23.30;99.90
46590;DHT22;32313;48.722;9.362;2023-09-07T08:00:05;23.50;99.90
46590;DHT22;32313;48.722;9.362;2023-09-07T08:02:39;23.40;99.90
46590;DHT22;32313;48.722;9.362;2023-09-07T08:05:07;23.80;99.90
46590;DHT22;32313;48.722;9.362;2023-09-07T08:07:33;24.10;99.90
46590;DHT22;32313;48.722;9.362;2023-09-07T08:09:59;24.00;99.90
46590;DHT22;32313;48.722;9.362;2023-09-07T08:12:25;24.30;99.90
46590;DHT22;32313;48.722;9.362;2023-09-07T08:14:51;24.60;99.90
46590;DHT22;32313;48.722;9.362;2023-09-07T08:17:17;24.80;99.90
46590;DHT22;32313;48.722;9.362;2023-09-07T08:19:42;25.20;99.90
46590;DHT22;32313;48.722;9.362;2023-09-07T08:22:09;25.60;99.90
46590;DHT22;32313;48.722;9.362;2023-09-07T08:24:35;25.60;99.90
46590;DHT22;32313;48.722;9.362;2023-09-07T08:27:01;25.80;99.90
46590;DHT22;32313;48.722;9.362;2023-09-07T08:29:28;25.80;99.90
46590;DHT22;32313;48.722;9.362;2023-09-07T08:31:57;25.70;99.90
46590;DHT22;32313;48.722;9.362;2023-09-07T08:34:24;25.60;99.90
46590;DHT22;32313;48.722;9.362;2023-09-07T08:36:51;25.80;99.90
46590;DHT22;32313;48.722;9.362;2023-09-07T08:39:19;26.20;99.90
46590;DHT22;32313;48.722;9.362;2023-09-07T08:41:45;26.40;99.90
46590;DHT22;32313;48.722;9.362;2023-09-07T08:44:15;26.90;99.90
46590;DHT22;32313;48.722;9.362;2023-09-07T08:46:43;27.30;99.90
46590;DHT22;32313;48.722;9.362;2023-09-07T08:49:10;28.00;99.90
46590;DHT22;32313;48.722;9.362;2023-09-07T08:51:37;28.20;99.90
46590;DHT22;32313;48.722;9.362;2023-09-07T08:54:04;28.50;99.90
46590;DHT22;32313;48.722;9.362;2023-09-07T08:56:30;28.80;99.90
46590;DHT22;32313;48.722;9.362;2023-09-07T08:58:56;28.60;99.90
46590;DHT22;32313;48.722;9.362;2023-09-07T09:01:22;28.50;99.90
46590;DHT22;32313;48.722;9.362;2023-09-07T09:03:51;28.70;99.90
46590;DHT22;32313;48.722;9.362;2023-09-07T09:06:18;28.90;99.90
46590;DHT22;32313;48.722;9.362;2023-09-07T09:08:49;29.00;99.90
46590;DHT22;32313;48.722;9.362;2023-09-07T09:11:16;28.80;99.90
46590;DHT22;32313;48.722;9.362;2023-09-07T09:13:43;28.80;99.90
46590;DHT22;32313;48.722;9.362;2023-09-07T09:16:10;28.90;99.90
46590;DHT22;32313;48.722;9.362;2023-09-07T09:18:36;28.80;99.90
46590;DHT22;32313;48.722;9.362;2023-09-07T09:21:03;29.10;99.90
46590;DHT22;32313;48.722;9.362;2023-09-07T09:23:34;29.40;99.90
46590;DHT22;32313;48.722;9.362;2023-09-07T09:26:01;29.50;99.90
46590;DHT22;32313;48.722;9.362;2023-09-07T09:28:27;29.30;99.90
46590;DHT22;32313;48.722;9.362;2023-09-07T09:30:58;29.40;99.90
46590;DHT22;32313;48.722;9.362;2023-09-07T09:33:24;29.50;99.90
46590;DHT22;32313;48.722;9.362;2023-09-07T09:35:51;29.40;99.90
46590;DHT22;32313;48.722;9.362;2023-09-07T09:38:18;29.40;99.90
46590;DHT22;32313;48.722;9.362;2023-09-07T09:40:44;29.70;98.00
46590;DHT22;32313;48.722;9.362;2023-09-07T09:43:11;30.10;97.80
46590;DHT22;32313;48.722;9.362;2023-09-07T09:45:37;30.60;97.80
46590;DHT22;32313;48.722;9.362;2023-09-07T09:48:05;31.00;97.40
46590;DHT22;32313;48.722;9.362;2023-09-07T09:50:31;31.10;95.30
46590;DHT22;32313;48.722;9.362;2023-09-07T09:53:00;31.10;95.20
46590;DHT22;32313;48.722;9.362;2023-09-07T09:55:29;31.30;94.70
46590;DHT22;32313;48.722;9.362;2023-09-07T09:57:56;31.50;94.80
46590;DHT22;32313;48.722;9.362;2023-09-07T10:00:23;31.30;94.60
46590;DHT22;32313;48.722;9.362;2023-09-07T10:03:02;31.60;94.60
46590;DHT22;32313;48.722;9.362;2023-09-07T10:05:30;31.50;92.40
46590;DHT22;32313;48.722;9.362;2023-09-07T10:08:01;31.70;92.90
46590;DHT22;32313;48.722;9.362;2023-09-07T10:10:36;31.80;92.10
46590;DHT22;32313;48.722;9.362;2023-09-07T10:13:03;31.70;91.40
46590;DHT22;32313;48.722;9.362;2023-09-07T10:15:29;31.60;91.40
46590;DHT22;32313;48.722;9.362;2023-09-07T10:20:56;32.30;90.60
46590;DHT22;32313;48.722;9.362;2023-09-07T10:23:41;32.40;89.90
46590;DHT22;32313;48.722;9.362;2023-09-07T10:26:18;32.70;90.30
46590;DHT22;32313;48.722;9.362;2023-09-07T10:28:44;33.10;88.20
46590;DHT22;32313;48.722;9.362;2023-09-07T10:31:18;33.40;87.00
46590;DHT22;32313;48.722;9.362;2023-09-07T10:33:44;33.50;85.70
46590;DHT22;32313;48.722;9.362;2023-09-07T10:36:21;33.30;84.10
46590;DHT22;32313;48.722;9.362;2023-09-07T10:38:46;33.10;86.00
46590;DHT22;32313;48.722;9.362;2023-09-07T10:41:12;33.40;84.50
46590;DHT22;32313;48.722;9.362;2023-09-07T10:43:47;33.60;86.00
46590;DHT22;32313;48.722;9.362;2023-09-07T10:46:13;34.00;84.20
46590;DHT22;32313;48.722;9.362;2023-09-07T10:48:39;34.50;83.20
46590;DHT22;32313;48.722;9.362;2023-09-07T10:51:06;34.80;80.70
46590;DHT22;32313;48.722;9.362;2023-09-07T10:53:32;34.70;79.80
46590;DHT22;32313;48.722;9.362;2023-09-07T10:56:02;34.70;78.40
46590;DHT22;32313;48.722;9.362;2023-09-07T10:58:30;34.90;78.40
46590;DHT22;32313;48.722;9.362;2023-09-07T11:00:57;34.90;76.70
46590;DHT22;32313;48.722;9.362;2023-09-07T11:03:24;34.40;77.40
46590;DHT22;32313;48.722;9.362;2023-09-07T11:05:52;34.40;77.80
46590;DHT22;32313;48.722;9.362;2023-09-07T11:08:19;34.80;77.60
46590;DHT22;32313;48.722;9.362;2023-09-07T11:10:45;35.00;76.30
46590;DHT22;32313;48.722;9.362;2023-09-07T11:13:10;35.40;75.00
46590;DHT22;32313;48.722;9.362;2023-09-07T11:15:36;35.80;73.80
46590;DHT22;32313;48.722;9.362;2023-09-07T11:18:08;35.60;73.60
46590;DHT22;32313;48.722;9.362;2023-09-07T11:20:37;35.50;72.80
46590;DHT22;32313;48.722;9.362;2023-09-07T11:23:06;35.40;73.60
46590;DHT22;32313;48.722;9.362;2023-09-07T11:25:37;35.40;73.10
46590;DHT22;32313;48.722;9.362;2023-09-07T11:28:04;34.90;72.50
46590;DHT22;32313;48.722;9.362;2023-09-07T11:30:30;34.70;72.80
46590;DHT22;32313;48.722;9.362;2023-09-07T11:33:02;34.90;72.10
46590;DHT22;32313;48.722;9.362;2023-09-07T11:35:29;35.30;73.90
46590;DHT22;32313;48.722;9.362;2023-09-07T11:37:55;36.00;69.00
46590;DHT22;32313;48.722;9.362;2023-09-07T11:40:21;36.00;67.20
46590;DHT22;32313;48.722;9.362;2023-09-07T11:42:46;36.10;66.90
46590;DHT22;32313;48.722;9.362;2023-09-07T11:45:12;36.10;68.10
46590;DHT22;32313;48.722;9.362;2023-09-07T11:47:39;36.20;65.70
46590;DHT22;32313;48.722;9.362;2023-09-07T11:50:05;36.20;64.00
46590;DHT22;32313;48.722;9.362;2023-09-07T11:52:32;36.50;64.60
46590;DHT22;32313;48.722;9.362;2023-09-07T11:54:58;36.10;64.20
46590;DHT22;32313;48.722;9.362;2023-09-07T11:57:23;36.20;62.80
46590;DHT22;32313;48.722;9.362;2023-09-07T11:59:50;36.60;65.30
46590;DHT22;32313;48.722;9.362;2023-09-07T12:02:15;37.20;65.60
46590;DHT22;32313;48.722;9.362;2023-09-07T12:04:43;37.50;65.10
46590;DHT22;32313;48.722;9.362;2023-09-07T12:07:10;37.60;63.60
46590;DHT22;32313;48.722;9.362;2023-09-07T12:09:36;37.60;64.20
46590;DHT22;32313;48.722;9.362;2023-09-07T12:12:02;38.10;64.40
46590;DHT22;32313;48.722;9.362;2023-09-07T12:14:28;38.30;62.50
46590;DHT22;32313;48.722;9.362;2023-09-07T12:16:53;38.20;60.50
46590;DHT22;32313;48.722;9.362;2023-09-07T12:19:19;38.10;58.70
46590;DHT22;32313;48.722;9.362;2023-09-07T12:21:45;38.10;61.70
46590;DHT22;32313;48.722;9.362;2023-09-07T12:24:10;38.30;61.00
46590;DHT22;32313;48.722;9.362;2023-09-07T12:26:37;38.20;62.00
46590;DHT22;32313;48.722;9.362;2023-09-07T12:29:04;37.60;60.90
46590;DHT22;32313;48.722;9.362;2023-09-07T12:31:30;37.00;61.20
46590;DHT22;32313;48.722;9.362;2023-09-07T12:33:57;37.10;61.50
46590;DHT22;32313;48.722;9.362;2023-09-07T12:36:22;37.10;60.60
46590;DHT22;32313;48.722;9.362;2023-09-07T12:38:49;37.50;60.60
46590;DHT22;32313;48.722;9.362;2023-09-07T12:41:14;37.60;60.40
46590;DHT22;32313;48.722;9.362;2023-09-07T12:43:41;37.70;60.10
46590;DHT22;32313;48.722;9.362;2023-09-07T12:46:08;37.80;60.10
46590;DHT22;32313;48.722;9.362;2023-09-07T12:48:35;38.10;56.90
46590;DHT22;32313;48.722;9.362;2023-09-07T12:51:00;37.60;57.10
46590;DHT22;32313;48.722;9.362;2023-09-07T12:53:26;37.40;57.40
46590;DHT22;32313;48.722;9.362;2023-09-07T12:55:53;37.20;57.30
46590;DHT22;32313;48.722;9.362;2023-09-07T12:58:19;37.00;58.90
46590;DHT22;32313;48.722;9.362;2023-09-07T13:00:45;36.90;57.30
46590;DHT22;32313;48.722;9.362;2023-09-07T13:03:10;37.00;58.20
46590;DHT22;32313;48.722;9.362;2023-09-07T13:05:37;37.40;58.90
46590;DHT22;32313;48.722;9.362;2023-09-07T13:08:03;37.80;58.00
46590;DHT22;32313;48.722;9.362;2023-09-07T13:10:29;38.00;58.20
46590;DHT22;32313;48.722;9.362;2023-09-07T13:12:55;38.10;56.60
46590;DHT22;32313;48.722;9.362;2023-09-07T13:15:21;38.10;56.80
46590;DHT22;32313;48.722;9.362;2023-09-07T13:17:46;38.20;57.70
46590;DHT22;32313;48.722;9.362;2023-09-07T13:20:12;38.50;56.80
46590;DHT22;32313;48.722;9.362;2023-09-07T13:22:39;38.30;56.60
46590;DHT22;32313;48.722;9.362;2023-09-07T13:25:05;38.30;57.10
46590;DHT22;32313;48.722;9.362;2023-09-07T13:27:31;38.40;55.60
46590;DHT22;32313;48.722;9.362;2023-09-07T13:29:57;38.40;53.40
46590;DHT22;32313;48.722;9.362;2023-09-07T13:32:23;38.20;54.00
46590;DHT22;32313;48.722;9.362;2023-09-07T13:34:50;38.20;53.90
46590;DHT22;32313;48.722;9.362;2023-09-07T13:37:16;38.10;54.10
46590;DHT22;32313;48.722;9.362;2023-09-07T13:39:41;38.20;54.40
46590;DHT22;32313;48.722;9.362;2023-09-07T13:42:07;38.00;54.90
46590;DHT22;32313;48.722;9.362;2023-09-07T13:44:33;38.20;55.50
46590;DHT22;32313;48.722;9.362;2023-09-07T13:47:00;38.20;55.20
46590;DHT22;32313;48.722;9.362;2023-09-07T13:49:26;38.50;53.90
46590;DHT22;32313;48.722;9.362;2023-09-07T13:51:51;38.60;53.90
46590;DHT22;32313;48.722;9.362;2023-09-07T13:54:17;38.70;53.40
46590;DHT22;32313;48.722;9.362;2023-09-07T13:56:42;38.50;54.00
46590;DHT22;32313;48.722;9.362;2023-09-07T13:59:10;38.80;54.30
46590;DHT22;32313;48.722;9.362;2023-09-07T14:01:36;38.90;51.70
46590;DHT22;32313;48.722;9.362;2023-09-07T14:04:03;39.00;51.80
46590;DHT22;32313;48.722;9.362;2023-09-07T14:06:29;38.80;52.50
46590;DHT22;32313;48.722;9.362;2023-09-07T14:08:57;38.80;50.30
46590;DHT22;32313;48.722;9.362;2023-09-07T14:11:22;38.70;52.80
46590;DHT22;32313;48.722;9.362;2023-09-07T14:13:49;38.80;52.30
46590;DHT22;32313;48.722;9.362;2023-09-07T14:16:20;38.80;52.50
46590;DHT22;32313;48.722;9.362;2023-09-07T14:18:46;38.70;53.50
46590;DHT22;32313;48.722;9.362;2023-09-07T14:21:16;38.80;53.50
46590;DHT22;32313;48.722;9.362;2023-09-07T14:23:43;38.70;51.70
46590;DHT22;32313;48.722;9.362;2023-09-07T14:26:09;38.30;51.60
46590;DHT22;32313;48.722;9.362;2023-09-07T14:28:36;37.90;53.00
46590;DHT22;32313;48.722;9.362;2023-09-07T14:31:04;37.80;53.40
46590;DHT22;32313;48.722;9.362;2023-09-07T14:33:32;37.90;53.80
46590;DHT22;32313;48.722;9.362;2023-09-07T14:35:58;37.70;55.30
46590;DHT22;32313;48.722;9.362;2023-09-07T14:38:24;38.00;55.70
46590;DHT22;32313;48.722;9.362;2023-09-07T14:40:52;38.20;53.80
46590;DHT22;32313;48.722;9.362;2023-09-07T14:43:23;38.40;52.50
46590;DHT22;32313;48.722;9.362;2023-09-07T14:45:49;38.30;51.80
46590;DHT22;32313;48.722;9.362;2023-09-07T14:48:15;38.00;52.00
46590;DHT22;32313;48.722;9.362;2023-09-07T14:50:41;37.60;53.90
46590;DHT22;32313;48.722;9.362;2023-09-07T14:53:07;37.60;54.30
46590;DHT22;32313;48.722;9.362;2023-09-07T14:55:32;37.40;53.80
46590;DHT22;32313;48.722;9.362;2023-09-07T14:57:58;37.30;54.80
46590;DHT22;32313;48.722;9.362;2023-09-07T15:00:24;37.30;53.60
46590;DHT22;32313;48.722;9.362;2023-09-07T15:02:53;37.30;54.10
46590;DHT22;32313;48.722;9.362;2023-09-07T15:05:18;37.30;54.60
46590;DHT22;32313;48.722;9.362;2023-09-07T15:07:44;37.40;54.00
46590;DHT22;32313;48.722;9.362;2023-09-07T15:10:10;37.30;53.90
46590;DHT22;32313;48.722;9.362;2023-09-07T15:12:35;37.20;54.00
46590;DHT22;32313;48.722;9.362;2023-09-07T15:15:01;36.80;53.10
46590;DHT22;32313;48.722;9.362;2023-09-07T15:17:27;36.50;54.20
46590;DHT22;32313;48.722;9.362;2023-09-07T15:19:53;36.50;55.20
46590;DHT22;32313;48.722;9.362;2023-09-07T15:22:19;36.70;55.00
46590;DHT22;32313;48.722;9.362;2023-09-07T15:24:44;37.10;54.70
46590;DHT22;32313;48.722;9.362;2023-09-07T15:27:11;37.30;54.80
46590;DHT22;32313;48.722;9.362;2023-09-07T15:29:38;37.50;54.50
46590;DHT22;32313;48.722;9.362;2023-09-07T15:32:07;37.40;54.00
46590;DHT22;32313;48.722;9.362;2023-09-07T15:34:32;37.20;54.00